sensor_id;sensor_type;location;lat;lon;timestamp;pressure;altitude;pressure_sealevel;temperature;humidity
6343;BME280;3204;42.698;23.298;2023-01-29T00:01:05;95025.94;;;2.02;87.17
6343;BME280;3204;42.698;23.298;2023-01-29T00:03:32;95030.44;;;1.97;86.90
6343;BME280;3204;42.698;23.298;2023-01-29T00:05:58;95037.66;;;1.96;87.69
6343;BME280;3204;42.698;23.298;2023-01-29T00:08:24;95038.78;;;2.00;86.71
6343;BME280;3204;42.698;23.298;2023-01-29T00:10:49;95038.22;;;1.98;87.51
6343;BME280;3204;42.698;23.298;2023-01-29T00:13:15;95043.72;;;1.87;87.60
6343;BME280;3204;42.698;23.298;2023-01-29T00:15:40;95045.94;;;1.95;87.68
6343;BME280;3204;42.698;23.298;2023-01-29T00:18:06;95044.38;;;1.99;87.06
6343;BME280;3204;42.698;23.298;2023-01-29T00:20:32;95046.44;;;1.92;88.09
6343;BME280;3204;42.698;23.298;2023-01-29T00:22:58;95048.03;;;1.88;87.74
6343;BME280;3204;42.698;23.298;2023-01-29T00:25:24;95057.94;;;1.92;88.37
6343;BME280;3204;42.698;23.298;2023-01-29T00:27:50;95053.75;;;2.01;87.09
6343;BME280;3204;42.698;23.298;2023-01-29T00:30:16;95051.28;;;1.95;87.89
6343;BME280;3204;42.698;23.298;2023-01-29T00:32:44;95050.84;;;2.03;88.04
6343;BME280;3204;42.698;23.298;2023-01-29T00:35:10;95048.84;;;1.93;87.53
6343;BME280;3204;42.698;23.298;2023-01-29T00:37:36;95056.34;;;1.91;87.81
6343;BME280;3204;42.698;23.298;2023-01-29T00:40:03;95059.66;;;2.03;87.59
6343;BME280;3204;42.698;23.298;2023-01-29T00:42:29;95056.38;;;1.96;88.20
6343;BME280;3204;42.698;23.298;2023-01-29T00:45:13;95059.81;;;1.92;88.08
6343;BME280;3204;42.698;23.298;2023-01-29T00:47:39;95050.25;;;2.01;88.34
6343;BME280;3204;42.698;23.298;2023-01-29T00:50:07;95057.84;;;2.09;87.75
6343;BME280;3204;42.698;23.298;2023-01-29T00:52:34;95060.56;;;2.14;87.41
6343;BME280;3204;42.698;23.298;2023-01-29T00:55:01;95059.97;;;2.07;87.22
6343;BME280;3204;42.698;23.298;2023-01-29T00:57:28;95056.81;;;2.15;88.05
6343;BME280;3204;42.698;23.298;2023-01-29T00:59:54;95056.78;;;2.10;87.94
6343;BME280;3204;42.698;23.298;2023-01-29T01:02:20;95051.66;;;2.08;87.70
6343;BME280;3204;42.698;23.298;2023-01-29T01:05:04;95060.97;;;2.01;88.13
6343;BME280;3204;42.698;23.298;2023-01-29T01:07:32;95054.25;;;1.98;87.99
6343;BME280;3204;42.698;23.298;2023-01-29T01:09:57;95050.59;;;2.04;87.67
6343;BME280;3204;42.698;23.298;2023-01-29T01:12:41;95053.91;;;1.90;86.90
6343;BME280;3204;42.698;23.298;2023-01-29T01:15:07;95050.03;;;1.76;88.31
6343;BME280;3204;42.698;23.298;2023-01-29T01:17:33;95048.41;;;1.75;88.71
6343;BME280;3204;42.698;23.298;2023-01-29T01:19:59;95048.06;;;1.66;89.08
6343;BME280;3204;42.698;23.298;2023-01-29T01:22:24;95052.44;;;1.77;88.83
6343;BME280;3204;42.698;23.298;2023-01-29T01:24:50;95048.97;;;1.77;88.32
6343;BME280;3204;42.698;23.298;2023-01-29T01:27:15;95047.75;;;1.89;87.95
6343;BME280;3204;42.698;23.298;2023-01-29T01:29:41;95056.34;;;1.91;87.99
6343;BME280;3204;42.698;23.298;2023-01-29T01:32:07;95046.34;;;1.82;87.78
6343;BME280;3204;42.698;23.298;2023-01-29T01:34:34;95047.84;;;1.73;88.70
6343;BME280;3204;42.698;23.298;2023-01-29T01:37:00;95044.63;;;1.71;88.68
6343;BME280;3204;42.698;23.298;2023-01-29T01:39:25;95051.13;;;1.80;87.95
6343;BME280;3204;42.698;23.298;2023-01-29T01:41:52;95045.53;;;1.81;88.31
6343;BME280;3204;42.698;23.298;2023-01-29T01:44:53;95049.09;;;1.92;88.12
6343;BME280;3204;42.698;23.298;2023-01-29T01:47:39;95047.94;;;1.83;87.72
6343;BME280;3204;42.698;23.298;2023-01-29T01:50:22;95054.09;;;1.83;87.54
6343;BME280;3204;42.698;23.298;2023-01-29T01:52:52;95050.56;;;1.78;88.90
6343;BME280;3204;42.698;23.298;2023-01-29T01:55:23;95051.53;;;1.67;88.56
6343;BME280;3204;42.698;23.298;2023-01-29T01:57:55;95045.13;;;1.68;89.16
6343;BME280;3204;42.698;23.298;2023-01-29T02:00:25;95061.47;;;1.71;88.97
6343;BME280;3204;42.698;23.298;2023-01-29T02:02:51;95054.88;;;1.79;89.20
6343;BME280;3204;42.698;23.298;2023-01-29T02:05:36;95062.47;;;1.65;89.71
6343;BME280;3204;42.698;23.298;2023-01-29T02:09:01;95057.75;;;1.72;89.73
6343;BME280;3204;42.698;23.298;2023-01-29T02:11:47;95059.59;;;1.72;90.46
6343;BME280;3204;42.698;23.298;2023-01-29T02:14:14;95056.00;;;1.61;90.89
6343;BME280;3204;42.698;23.298;2023-01-29T02:16:39;95058.00;;;1.71;90.45
6343;BME280;3204;42.698;23.298;2023-01-29T02:19:10;95061.31;;;1.83;89.21
6343;BME280;3204;42.698;23.298;2023-01-29T02:32:00;95070.81;;;1.69;90.51
6343;BME280;3204;42.698;23.298;2023-01-29T02:37:37;95065.00;;;1.77;89.94
6343;BME280;3204;42.698;23.298;2023-01-29T02:42:39;95073.84;;;1.77;90.40
6343;BME280;3204;42.698;23.298;2023-01-29T02:45:16;95076.00;;;1.80;90.60
6343;BME280;3204;42.698;23.298;2023-01-29T02:47:56;95081.84;;;1.77;91.31
6343;BME280;3204;42.698;23.298;2023-01-29T02:53:19;95074.44;;;1.84;90.64
6343;BME280;3204;42.698;23.298;2023-01-29T02:56:16;95082.44;;;1.84;91.10
6343;BME280;3204;42.698;23.298;2023-01-29T02:58:48;95077.72;;;1.91;89.94
6343;BME280;3204;42.698;23.298;2023-01-29T03:01:22;95084.94;;;1.91;90.27
6343;BME280;3204;42.698;23.298;2023-01-29T03:03:56;95080.66;;;1.90;91.15
6343;BME280;3204;42.698;23.298;2023-01-29T03:06:30;95077.16;;;1.89;90.64
6343;BME280;3204;42.698;23.298;2023-01-29T03:08:59;95083.56;;;1.88;90.81
6343;BME280;3204;42.698;23.298;2023-01-29T03:11:31;95081.16;;;1.87;90.79
6343;BME280;3204;42.698;23.298;2023-01-29T03:14:03;95080.41;;;1.91;91.43
6343;BME280;3204;42.698;23.298;2023-01-29T03:16:38;95076.91;;;1.91;91.17
6343;BME280;3204;42.698;23.298;2023-01-29T03:19:10;95081.41;;;1.85;91.08
6343;BME280;3204;42.698;23.298;2023-01-29T03:21:40;95088.13;;;1.88;90.26
6343;BME280;3204;42.698;23.298;2023-01-29T03:24:49;95091.88;;;1.92;90.17
6343;BME280;3204;42.698;23.298;2023-01-29T03:27:44;95090.53;;;1.89;90.62
6343;BME280;3204;42.698;23.298;2023-01-29T03:30:32;95100.38;;;1.84;90.86
6343;BME280;3204;42.698;23.298;2023-01-29T03:33:20;95092.66;;;1.87;90.99
6343;BME280;3204;42.698;23.298;2023-01-29T03:36:21;95101.75;;;1.86;90.10
6343;BME280;3204;42.698;23.298;2023-01-29T03:38:51;95089.50;;;1.90;90.59
6343;BME280;3204;42.698;23.298;2023-01-29T03:41:32;95100.44;;;1.89;90.72
6343;BME280;3204;42.698;23.298;2023-01-29T03:49:29;95089.69;;;1.84;89.66
6343;BME280;3204;42.698;23.298;2023-01-29T03:52:01;95080.41;;;1.91;89.79
6343;BME280;3204;42.698;23.298;2023-01-29T03:54:58;95091.84;;;1.87;89.41
6343;BME280;3204;42.698;23.298;2023-01-29T03:57:34;95090.72;;;1.83;90.38
6343;BME280;3204;42.698;23.298;2023-01-29T04:02:33;95091.78;;;1.82;89.67
6343;BME280;3204;42.698;23.298;2023-01-29T04:05:08;95086.25;;;1.88;90.64
6343;BME280;3204;42.698;23.298;2023-01-29T04:07:36;95092.91;;;1.86;90.75
6343;BME280;3204;42.698;23.298;2023-01-29T04:10:08;95094.69;;;1.80;90.82
6343;BME280;3204;42.698;23.298;2023-01-29T04:12:43;95097.72;;;1.84;90.92
6343;BME280;3204;42.698;23.298;2023-01-29T04:15:13;95091.34;;;1.90;91.27
6343;BME280;3204;42.698;23.298;2023-01-29T04:17:43;95101.41;;;1.83;91.24
6343;BME280;3204;42.698;23.298;2023-01-29T04:20:11;95099.56;;;1.83;90.93
6343;BME280;3204;42.698;23.298;2023-01-29T04:22:39;95100.44;;;1.89;90.95
6343;BME280;3204;42.698;23.298;2023-01-29T04:25:17;95102.28;;;1.88;90.51
6343;BME280;3204;42.698;23.298;2023-01-29T04:28:20;95102.53;;;1.87;90.72
6343;BME280;3204;42.698;23.298;2023-01-29T04:31:03;95099.63;;;1.88;90.68
6343;BME280;3204;42.698;23.298;2023-01-29T04:33:35;95111.13;;;1.89;89.97
6343;BME280;3204;42.698;23.298;2023-01-29T04:36:47;95101.16;;;1.84;90.98
6343;BME280;3204;42.698;23.298;2023-01-29T04:44:38;95112.00;;;1.73;90.30
6343;BME280;3204;42.698;23.298;2023-01-29T04:47:46;95110.50;;;1.82;90.81
6343;BME280;3204;42.698;23.298;2023-01-29T04:50:44;95108.88;;;1.81;90.82
6343;BME280;3204;42.698;23.298;2023-01-29T04:56:25;95111.81;;;1.79;90.60
6343;BME280;3204;42.698;23.298;2023-01-29T04:59:08;95116.56;;;1.72;90.81
6343;BME280;3204;42.698;23.298;2023-01-29T05:01:37;95113.41;;;1.80;90.31
6343;BME280;3204;42.698;23.298;2023-01-29T05:04:08;95122.50;;;1.79;90.45
6343;BME280;3204;42.698;23.298;2023-01-29T05:06:36;95119.53;;;1.76;89.73
6343;BME280;3204;42.698;23.298;2023-01-29T05:09:03;95117.69;;;1.76;90.19
6343;BME280;3204;42.698;23.298;2023-01-29T05:11:30;95123.75;;;1.72;90.00
6343;BME280;3204;42.698;23.298;2023-01-29T05:13:57;95120.53;;;1.70;90.78
6343;BME280;3204;42.698;23.298;2023-01-29T05:16:25;95125.88;;;1.70;91.19
6343;BME280;3204;42.698;23.298;2023-01-29T05:18:52;95128.38;;;1.76;90.90
6343;BME280;3204;42.698;23.298;2023-01-29T05:21:18;95125.94;;;1.75;90.49
6343;BME280;3204;42.698;23.298;2023-01-29T05:24:05;95123.25;;;1.75;91.14
6343;BME280;3204;42.698;23.298;2023-01-29T05:26:31;95115.84;;;1.82;91.04
6343;BME280;3204;42.698;23.298;2023-01-29T05:29:16;95124.94;;;1.81;90.25
6343;BME280;3204;42.698;23.298;2023-01-29T05:31:43;95129.97;;;1.77;90.51
6343;BME280;3204;42.698;23.298;2023-01-29T05:34:09;95124.06;;;1.75;89.82
6343;BME280;3204;42.698;23.298;2023-01-29T05:36:34;95131.28;;;1.75;90.33
6343;BME280;3204;42.698;23.298;2023-01-29T05:39:00;95137.41;;;1.75;90.21
6343;BME280;3204;42.698;23.298;2023-01-29T05:41:25;95134.81;;;1.80;90.52
6343;BME280;3204;42.698;23.298;2023-01-29T05:43:51;95134.50;;;1.77;90.72
6343;BME280;3204;42.698;23.298;2023-01-29T05:46:16;95137.19;;;1.77;89.95
6343;BME280;3204;42.698;23.298;2023-01-29T05:48:42;95142.34;;;1.83;90.11
6343;BME280;3204;42.698;23.298;2023-01-29T05:51:07;95138.28;;;1.81;90.82
6343;BME280;3204;42.698;23.298;2023-01-29T05:53:32;95150.66;;;1.87;89.93
6343;BME280;3204;42.698;23.298;2023-01-29T05:56:02;95150.66;;;1.87;90.25
6343;BME280;3204;42.698;23.298;2023-01-29T05:58:32;95149.03;;;1.86;90.55
6343;BME280;3204;42.698;23.298;2023-01-29T06:00:59;95148.56;;;1.89;90.64
6343;BME280;3204;42.698;23.298;2023-01-29T06:03:31;95154.22;;;1.92;90.75
6343;BME280;3204;42.698;23.298;2023-01-29T06:05:57;95158.50;;;1.93;90.65
6343;BME280;3204;42.698;23.298;2023-01-29T06:08:22;95163.59;;;1.95;91.09
6343;BME280;3204;42.698;23.298;2023-01-29T06:10:47;95161.94;;;1.89;91.20
6343;BME280;3204;42.698;23.298;2023-01-29T06:13:13;95163.34;;;1.96;91.15
6343;BME280;3204;42.698;23.298;2023-01-29T06:15:39;95169.31;;;2.03;90.78
6343;BME280;3204;42.698;23.298;2023-01-29T06:18:05;95176.78;;;2.01;90.52
6343;BME280;3204;42.698;23.298;2023-01-29T06:20:30;95168.94;;;1.95;91.38
6343;BME280;3204;42.698;23.298;2023-01-29T06:22:56;95173.81;;;1.98;91.00
6343;BME280;3204;42.698;23.298;2023-01-29T06:25:22;95175.97;;;2.01;91.46
6343;BME280;3204;42.698;23.298;2023-01-29T06:27:49;95182.44;;;2.05;91.53
6343;BME280;3204;42.698;23.298;2023-01-29T06:30:16;95185.91;;;2.05;90.77
6343;BME280;3204;42.698;23.298;2023-01-29T06:32:41;95189.97;;;2.08;91.41
6343;BME280;3204;42.698;23.298;2023-01-29T06:35:07;95189.09;;;2.02;90.99
6343;BME280;3204;42.698;23.298;2023-01-29T06:37:34;95188.34;;;2.07;90.79
6343;BME280;3204;42.698;23.298;2023-01-29T06:39:59;95192.88;;;2.06;91.88
6343;BME280;3204;42.698;23.298;2023-01-29T06:42:24;95188.59;;;2.05;91.38
6343;BME280;3204;42.698;23.298;2023-01-29T06:44:53;95203.56;;;2.06;90.53
6343;BME280;3204;42.698;23.298;2023-01-29T06:47:19;95194.31;;;2.14;91.42
6343;BME280;3204;42.698;23.298;2023-01-29T06:49:45;95197.47;;;2.11;91.08
6343;BME280;3204;42.698;23.298;2023-01-29T06:52:10;95188.66;;;2.10;91.34
6343;BME280;3204;42.698;23.298;2023-01-29T06:54:36;95198.03;;;2.13;91.06
6343;BME280;3204;42.698;23.298;2023-01-29T06:57:01;95198.84;;;2.13;90.95
6343;BME280;3204;42.698;23.298;2023-01-29T06:59:26;95211.41;;;2.13;90.91
6343;BME280;3204;42.698;23.298;2023-01-29T07:01:52;95212.19;;;2.13;91.53
6343;BME280;3204;42.698;23.298;2023-01-29T07:04:18;95206.84;;;2.13;90.73
6343;BME280;3204;42.698;23.298;2023-01-29T07:06:43;95208.56;;;2.19;91.13
6343;BME280;3204;42.698;23.298;2023-01-29T07:09:11;95205.94;;;2.24;90.52
6343;BME280;3204;42.698;23.298;2023-01-29T07:11:38;95209.66;;;2.23;90.95
6343;BME280;3204;42.698;23.298;2023-01-29T07:14:04;95216.69;;;2.29;90.70
6343;BME280;3204;42.698;23.298;2023-01-29T07:16:30;95225.56;;;2.35;90.73
6343;BME280;3204;42.698;23.298;2023-01-29T07:18:56;95227.69;;;2.33;90.35
6343;BME280;3204;42.698;23.298;2023-01-29T07:21:21;95227.38;;;2.29;90.99
6343;BME280;3204;42.698;23.298;2023-01-29T07:23:47;95234.59;;;2.29;90.57
6343;BME280;3204;42.698;23.298;2023-01-29T07:26:13;95234.66;;;2.34;90.74
6343;BME280;3204;42.698;23.298;2023-01-29T07:28:39;95235.72;;;2.33;90.68
6343;BME280;3204;42.698;23.298;2023-01-29T07:31:05;95231.97;;;2.34;90.73
6343;BME280;3204;42.698;23.298;2023-01-29T07:33:31;95236.59;;;2.38;89.80
6343;BME280;3204;42.698;23.298;2023-01-29T07:35:56;95236.84;;;2.37;90.09
6343;BME280;3204;42.698;23.298;2023-01-29T07:38:22;95238.50;;;2.43;89.85
6343;BME280;3204;42.698;23.298;2023-01-29T07:40:47;95243.59;;;2.44;89.52
6343;BME280;3204;42.698;23.298;2023-01-29T07:43:14;95239.50;;;2.37;89.55
6343;BME280;3204;42.698;23.298;2023-01-29T07:45:40;95241.19;;;2.43;89.47
6343;BME280;3204;42.698;23.298;2023-01-29T07:48:08;95243.38;;;2.46;88.65
6343;BME280;3204;42.698;23.298;2023-01-29T07:50:34;95245.50;;;2.49;89.12
6343;BME280;3204;42.698;23.298;2023-01-29T07:53:00;95243.38;;;2.46;89.64
6343;BME280;3204;42.698;23.298;2023-01-29T07:55:26;95246.28;;;2.44;88.84
6343;BME280;3204;42.698;23.298;2023-01-29T07:58:10;95250.28;;;2.42;89.60
6343;BME280;3204;42.698;23.298;2023-01-29T08:00:35;95250.56;;;2.45;89.16
6343;BME280;3204;42.698;23.298;2023-01-29T08:03:02;95250.09;;;2.48;89.24
6343;BME280;3204;42.698;23.298;2023-01-29T08:05:31;95250.31;;;2.47;89.70
6343;BME280;3204;42.698;23.298;2023-01-29T08:07:57;95255.19;;;2.50;89.18
6343;BME280;3204;42.698;23.298;2023-01-29T08:10:23;95257.28;;;2.48;89.11
6343;BME280;3204;42.698;23.298;2023-01-29T08:12:55;95263.41;;;2.43;89.31
6343;BME280;3204;42.698;23.298;2023-01-29T08:15:21;95252.91;;;2.37;88.73
6343;BME280;3204;42.698;23.298;2023-01-29T08:17:48;95262.03;;;2.41;89.52
6343;BME280;3204;42.698;23.298;2023-01-29T08:20:13;95254.66;;;2.53;88.11
6343;BME280;3204;42.698;23.298;2023-01-29T08:22:38;95270.97;;;2.51;88.21
6343;BME280;3204;42.698;23.298;2023-01-29T08:25:04;95255.50;;;2.53;88.21
6343;BME280;3204;42.698;23.298;2023-01-29T08:27:29;95258.59;;;2.45;88.04
6343;BME280;3204;42.698;23.298;2023-01-29T08:29:55;95266.94;;;2.49;88.11
6343;BME280;3204;42.698;23.298;2023-01-29T08:32:20;95275.78;;;2.49;88.18
6343;BME280;3204;42.698;23.298;2023-01-29T08:34:46;95266.19;;;2.53;87.52
6343;BME280;3204;42.698;23.298;2023-01-29T08:37:11;95270.25;;;2.56;87.03
6343;BME280;3204;42.698;23.298;2023-01-29T08:39:37;95264.94;;;2.61;87.65
6343;BME280;3204;42.698;23.298;2023-01-29T08:42:02;95268.88;;;2.53;86.59
6343;BME280;3204;42.698;23.298;2023-01-29T08:44:28;95276.66;;;2.55;87.79
6343;BME280;3204;42.698;23.298;2023-01-29T08:46:53;95276.25;;;2.68;86.85
6343;BME280;3204;42.698;23.298;2023-01-29T08:49:19;95273.06;;;2.71;86.91
6343;BME280;3204;42.698;23.298;2023-01-29T08:51:45;95287.56;;;2.75;85.98
6343;BME280;3204;42.698;23.298;2023-01-29T08:54:10;95285.88;;;2.64;87.15
6343;BME280;3204;42.698;23.298;2023-01-29T08:56:36;95285.63;;;2.70;86.35
6343;BME280;3204;42.698;23.298;2023-01-29T08:59:01;95290.19;;;2.70;86.50
6343;BME280;3204;42.698;23.298;2023-01-29T09:01:27;95302.44;;;2.87;86.35
6343;BME280;3204;42.698;23.298;2023-01-29T09:03:52;95309.09;;;2.85;85.47
6343;BME280;3204;42.698;23.298;2023-01-29T09:06:18;95304.47;;;2.75;86.27
6343;BME280;3204;42.698;23.298;2023-01-29T09:08:43;95299.94;;;2.81;85.20
6343;BME280;3204;42.698;23.298;2023-01-29T09:11:09;95300.00;;;2.86;85.49
6343;BME280;3204;42.698;23.298;2023-01-29T09:13:35;95283.53;;;2.99;87.49
6343;BME280;3204;42.698;23.298;2023-01-29T09:16:01;95293.94;;;2.95;86.14
6343;BME280;3204;42.698;23.298;2023-01-29T09:18:28;95300.63;;;2.93;86.41
6343;BME280;3204;42.698;23.298;2023-01-29T09:20:54;95292.63;;;2.98;85.85
6343;BME280;3204;42.698;23.298;2023-01-29T09:23:20;95295.47;;;2.86;85.61
6343;BME280;3204;42.698;23.298;2023-01-29T09:25:45;95290.31;;;2.80;85.72
6343;BME280;3204;42.698;23.298;2023-01-29T09:28:11;95296.09;;;2.72;86.09
6343;BME280;3204;42.698;23.298;2023-01-29T09:30:37;95297.50;;;2.79;85.69
6343;BME280;3204;42.698;23.298;2023-01-29T09:33:06;95294.09;;;2.84;85.13
6343;BME280;3204;42.698;23.298;2023-01-29T09:35:32;95284.47;;;2.83;85.35
6343;BME280;3204;42.698;23.298;2023-01-29T09:38:00;95283.88;;;2.81;85.53
6343;BME280;3204;42.698;23.298;2023-01-29T09:40:34;95282.31;;;2.85;85.31
6343;BME280;3204;42.698;23.298;2023-01-29T09:43:11;95283.25;;;2.95;84.92
6343;BME280;3204;42.698;23.298;2023-01-29T09:46:04;95280.56;;;2.95;84.94
6343;BME280;3204;42.698;23.298;2023-01-29T09:48:29;95276.03;;;3.01;84.68
6343;BME280;3204;42.698;23.298;2023-01-29T09:50:57;95273.63;;;2.99;84.34
6343;BME280;3204;42.698;23.298;2023-01-29T09:53:44;95278.13;;;2.94;84.98
6343;BME280;3204;42.698;23.298;2023-01-29T09:56:21;95280.00;;;2.93;84.95
6343;BME280;3204;42.698;23.298;2023-01-29T09:58:56;95275.41;;;2.89;84.77
6343;BME280;3204;42.698;23.298;2023-01-29T10:13:32;95266.84;;;2.92;85.39
6343;BME280;3204;42.698;23.298;2023-01-29T10:15:34;95261.44;;;2.87;84.85
6343;BME280;3204;42.698;23.298;2023-01-29T10:18:26;95258.88;;;2.97;84.40
6343;BME280;3204;42.698;23.298;2023-01-29T10:24:04;95261.19;;;2.88;85.08
6343;BME280;3204;42.698;23.298;2023-01-29T10:26:33;95261.44;;;2.87;85.74
6343;BME280;3204;42.698;23.298;2023-01-29T10:29:05;95257.16;;;2.86;85.38
6343;BME280;3204;42.698;23.298;2023-01-29T10:31:34;95252.16;;;2.94;85.40
6343;BME280;3204;42.698;23.298;2023-01-29T10:34:12;95250.19;;;2.85;85.86
6343;BME280;3204;42.698;23.298;2023-01-29T10:36:44;95253.34;;;2.82;85.45
6343;BME280;3204;42.698;23.298;2023-01-29T10:39:21;95236.78;;;2.85;84.99
6343;BME280;3204;42.698;23.298;2023-01-29T10:45:15;95251.84;;;2.91;85.46
6343;BME280;3204;42.698;23.298;2023-01-29T11:00:51;95236.75;;;2.80;85.91
6343;BME280;3204;42.698;23.298;2023-01-29T11:03:28;95233.53;;;2.78;86.20
6343;BME280;3204;42.698;23.298;2023-01-29T11:08:45;95236.25;;;2.83;85.32
6343;BME280;3204;42.698;23.298;2023-01-29T11:11:16;95230.94;;;2.88;85.52
6343;BME280;3204;42.698;23.298;2023-01-29T11:13:56;95227.78;;;2.96;85.45
6343;BME280;3204;42.698;23.298;2023-01-29T11:16:23;95227.44;;;2.87;85.87
6343;BME280;3204;42.698;23.298;2023-01-29T11:21:16;95222.34;;;2.86;85.40
6343;BME280;3204;42.698;23.298;2023-01-29T11:23:41;95227.75;;;2.91;85.65
6343;BME280;3204;42.698;23.298;2023-01-29T11:26:11;95218.75;;;3.02;85.57
6343;BME280;3204;42.698;23.298;2023-01-29T11:28:44;95211.25;;;3.04;84.19
6343;BME280;3204;42.698;23.298;2023-01-29T11:31:34;95218.97;;;2.95;84.67
6343;BME280;3204;42.698;23.298;2023-01-29T11:34:21;95212.34;;;3.08;84.60
6343;BME280;3204;42.698;23.298;2023-01-29T11:37:03;95205.00;;;2.93;84.07
6343;BME280;3204;42.698;23.298;2023-01-29T11:39:30;95199.38;;;2.95;84.75
6343;BME280;3204;42.698;23.298;2023-01-29T11:42:01;95200.47;;;2.94;85.18
6343;BME280;3204;42.698;23.298;2023-01-29T11:49:40;95193.34;;;3.09;84.68
6343;BME280;3204;42.698;23.298;2023-01-29T11:52:09;95189.59;;;3.10;85.08
6343;BME280;3204;42.698;23.298;2023-01-29T11:54:38;95192.09;;;3.22;84.83
6343;BME280;3204;42.698;23.298;2023-01-29T11:57:23;95192.13;;;3.27;83.66
6343;BME280;3204;42.698;23.298;2023-01-29T11:59:50;95191.66;;;3.35;83.68
6343;BME280;3204;42.698;23.298;2023-01-29T12:02:26;95191.44;;;3.46;84.00
6343;BME280;3204;42.698;23.298;2023-01-29T12:04:57;95183.88;;;3.33;83.39
6343;BME280;3204;42.698;23.298;2023-01-29T12:07:24;95181.78;;;3.45;82.81
6343;BME280;3204;42.698;23.298;2023-01-29T12:09:54;95177.25;;;3.46;82.03
6343;BME280;3204;42.698;23.298;2023-01-29T12:12:32;95176.41;;;3.40;83.80
6343;BME280;3204;42.698;23.298;2023-01-29T12:15:15;95176.16;;;3.42;83.80
6343;BME280;3204;42.698;23.298;2023-01-29T12:17:44;95177.53;;;3.49;83.45
6343;BME280;3204;42.698;23.298;2023-01-29T12:20:20;95178.03;;;3.46;83.22
6343;BME280;3204;42.698;23.298;2023-01-29T12:23:10;95176.47;;;3.50;83.46
6343;BME280;3204;42.698;23.298;2023-01-29T12:28:16;95181.06;;;3.55;82.56
6343;BME280;3204;42.698;23.298;2023-01-29T12:38:44;95181.06;;;3.55;82.79
6343;BME280;3204;42.698;23.298;2023-01-29T12:41:33;95178.97;;;3.67;82.81
6343;BME280;3204;42.698;23.298;2023-01-29T12:44:19;95177.38;;;3.71;81.38
6343;BME280;3204;42.698;23.298;2023-01-29T12:46:50;95181.69;;;3.72;82.14
6343;BME280;3204;42.698;23.298;2023-01-29T12:49:32;95177.44;;;3.81;81.65
6343;BME280;3204;42.698;23.298;2023-01-29T12:52:20;95182.19;;;3.64;81.63
6343;BME280;3204;42.698;23.298;2023-01-29T12:54:56;95178.72;;;3.68;81.91
6343;BME280;3204;42.698;23.298;2023-01-29T13:00:05;95176.88;;;3.74;81.78
6343;BME280;3204;42.698;23.298;2023-01-29T13:02:43;95174.69;;;3.66;81.57
6343;BME280;3204;42.698;23.298;2023-01-29T13:07:45;95185.34;;;3.56;81.51
6343;BME280;3204;42.698;23.298;2023-01-29T13:10:17;95161.16;;;3.46;81.92
6343;BME280;3204;42.698;23.298;2023-01-29T13:12:54;95173.25;;;3.48;81.16
6343;BME280;3204;42.698;23.298;2023-01-29T13:15:41;95173.22;;;3.43;81.79
6343;BME280;3204;42.698;23.298;2023-01-29T13:21:01;95181.69;;;3.30;83.05
6343;BME280;3204;42.698;23.298;2023-01-29T13:23:35;95184.97;;;3.37;82.29
6343;BME280;3204;42.698;23.298;2023-01-29T13:26:02;95190.31;;;3.32;82.83
6343;BME280;3204;42.698;23.298;2023-01-29T13:28:29;95181.50;;;3.37;82.30
6343;BME280;3204;42.698;23.298;2023-01-29T13:31:35;95184.56;;;3.60;81.21
6343;BME280;3204;42.698;23.298;2023-01-29T13:34:14;95185.28;;;3.41;81.59
6343;BME280;3204;42.698;23.298;2023-01-29T13:36:46;95199.22;;;3.43;82.04
6343;BME280;3204;42.698;23.298;2023-01-29T13:39:23;95199.50;;;3.46;80.75
6343;BME280;3204;42.698;23.298;2023-01-29T13:41:50;95198.25;;;3.22;80.39
6343;BME280;3204;42.698;23.298;2023-01-29T13:44:20;95206.25;;;3.17;81.50
6343;BME280;3204;42.698;23.298;2023-01-29T13:47:02;95202.34;;;2.98;81.44
6343;BME280;3204;42.698;23.298;2023-01-29T13:55:02;95204.66;;;2.85;81.08
6343;BME280;3204;42.698;23.298;2023-01-29T14:02:41;95197.66;;;2.79;82.16
6343;BME280;3204;42.698;23.298;2023-01-29T14:11:34;95210.22;;;2.52;82.94
6343;BME280;3204;42.698;23.298;2023-01-29T14:14:00;95215.53;;;2.47;83.88
6343;BME280;3204;42.698;23.298;2023-01-29T14:16:31;95220.13;;;2.51;82.93
6343;BME280;3204;42.698;23.298;2023-01-29T14:18:59;95215.22;;;2.70;81.90
6343;BME280;3204;42.698;23.298;2023-01-29T14:21:29;95222.28;;;2.81;82.29
6343;BME280;3204;42.698;23.298;2023-01-29T14:24:06;95227.75;;;2.91;81.58
6343;BME280;3204;42.698;23.298;2023-01-29T14:26:41;95228.00;;;2.63;82.63
6343;BME280;3204;42.698;23.298;2023-01-29T14:36:44;95238.34;;;2.54;83.24
6343;BME280;3204;42.698;23.298;2023-01-29T14:39:44;95239.13;;;2.50;83.21
6343;BME280;3204;42.698;23.298;2023-01-29T14:44:56;95236.34;;;2.40;85.14
6343;BME280;3204;42.698;23.298;2023-01-29T14:49:56;95230.66;;;2.36;84.99
6343;BME280;3204;42.698;23.298;2023-01-29T14:52:31;95230.47;;;2.43;85.47
6343;BME280;3204;42.698;23.298;2023-01-29T14:55:02;95223.50;;;2.42;84.94
6343;BME280;3204;42.698;23.298;2023-01-29T14:57:30;95227.31;;;2.46;84.87
6343;BME280;3204;42.698;23.298;2023-01-29T14:59:59;95236.91;;;2.42;85.76
6343;BME280;3204;42.698;23.298;2023-01-29T15:02:29;95240.69;;;2.46;85.03
6343;BME280;3204;42.698;23.298;2023-01-29T15:05:02;95238.00;;;2.46;85.36
6343;BME280;3204;42.698;23.298;2023-01-29T15:08:05;95234.91;;;2.32;86.40
6343;BME280;3204;42.698;23.298;2023-01-29T15:10:47;95236.03;;;2.36;87.14
6343;BME280;3204;42.698;23.298;2023-01-29T15:13:49;95226.13;;;2.37;86.76
6343;BME280;3204;42.698;23.298;2023-01-29T15:16:21;95233.50;;;2.51;86.44
6343;BME280;3204;42.698;23.298;2023-01-29T15:18:52;95241.00;;;2.76;85.17
6343;BME280;3204;42.698;23.298;2023-01-29T15:21:19;95240.22;;;2.54;85.16
6343;BME280;3204;42.698;23.298;2023-01-29T15:23:45;95238.84;;;2.51;85.05
6343;BME280;3204;42.698;23.298;2023-01-29T15:26:23;95244.44;;;2.45;85.01
6343;BME280;3204;42.698;23.298;2023-01-29T15:28:56;95242.78;;;2.44;85.28
6343;BME280;3204;42.698;23.298;2023-01-29T15:31:22;95249.22;;;2.43;84.55
6343;BME280;3204;42.698;23.298;2023-01-29T15:33:50;95240.06;;;2.39;84.70
6343;BME280;3204;42.698;23.298;2023-01-29T15:36:19;95251.50;;;2.56;84.79
6343;BME280;3204;42.698;23.298;2023-01-29T15:38:46;95246.28;;;2.44;84.80
6343;BME280;3204;42.698;23.298;2023-01-29T15:41:18;95245.22;;;2.45;84.82
6343;BME280;3204;42.698;23.298;2023-01-29T15:43:49;95255.50;;;2.32;85.34
6343;BME280;3204;42.698;23.298;2023-01-29T15:48:44;95248.28;;;2.32;85.38
6343;BME280;3204;42.698;23.298;2023-01-29T15:51:15;95246.84;;;2.46;85.20
6343;BME280;3204;42.698;23.298;2023-01-29T15:53:44;95250.94;;;2.32;85.35